createdAt,value
2022-08-29T00:01:43.448Z,47.53
2022-08-29T00:02:43.430Z,47.56
2022-08-29T00:04:36.881Z,47.46
2022-08-29T00:05:36.769Z,47.36
2022-08-29T00:07:29.114Z,47.56
2022-08-29T00:08:29.100Z,47.85
2022-08-29T00:10:21.529Z,47.56
2022-08-29T00:11:21.421Z,47.17
2022-08-29T00:13:13.755Z,47.56
2022-08-29T00:14:21.026Z,47.85
2022-08-29T00:16:07.191Z,47.82
2022-08-29T00:17:07.077Z,47.46
2022-08-29T00:18:59.418Z,47.56
2022-08-29T00:19:59.403Z,47.56
2022-08-29T00:21:51.846Z,47.56
2022-08-29T00:22:51.734Z,47.56
2022-08-29T00:24:44.079Z,47.27
2022-08-29T00:25:44.064Z,47.36
2022-08-29T00:27:37.508Z,47.36
2022-08-29T00:28:37.399Z,47.36
2022-08-29T00:30:29.733Z,47.85
2022-08-29T00:31:29.790Z,47.82
2022-08-29T00:33:22.154Z,47.85
2022-08-29T00:34:22.035Z,47.36
2022-08-29T00:36:15.398Z,47.85
2022-08-29T00:37:15.380Z,47.46
2022-08-29T00:39:09.353Z,47.94
2022-08-29T00:40:07.888Z,47.36
2022-08-29T00:42:00.175Z,47.36
2022-08-29T00:43:00.163Z,47.36
2022-08-29T00:44:52.650Z,47.85
2022-08-29T00:45:52.619Z,47.46
2022-08-29T00:47:44.912Z,47.36
2022-08-29T00:48:44.895Z,47.46
2022-08-29T00:50:38.351Z,47.36
2022-08-29T00:51:38.230Z,47.27
2022-08-29T00:53:30.563Z,47.36
2022-08-29T00:54:30.548Z,47.36
2022-08-29T00:56:24.009Z,47.36
2022-08-29T00:57:23.885Z,47.27
2022-08-29T00:59:17.222Z,47.46
2022-08-29T01:00:17.207Z,47.56
2022-08-29T01:02:10.722Z,47.27
2022-08-29T01:03:10.541Z,47.36
2022-08-29T01:05:03.894Z,47.27
2022-08-29T01:06:03.875Z,47.27
2022-08-29T01:07:56.320Z,47.56
2022-08-29T01:08:57.212Z,47.27
2022-08-29T01:10:48.536Z,47.36
2022-08-29T01:11:48.519Z,47.46
2022-08-29T01:13:40.495Z,47.36
2022-08-29T01:14:40.369Z,47.36
2022-08-29T01:16:32.776Z,47.36
2022-08-29T01:17:32.695Z,47.27
2022-08-29T01:19:27.817Z,47.36
2022-08-29T01:20:26.031Z,47.27
2022-08-29T01:22:18.364Z,47.36
2022-08-29T01:23:18.350Z,47.27
2022-08-29T01:25:10.750Z,47.27
2022-08-29T01:26:10.668Z,47.27
2022-08-29T01:28:03.011Z,47.27
2022-08-29T01:29:02.989Z,47.36
2022-08-29T01:30:56.408Z,47.27
2022-08-29T01:31:57.948Z,47.27
2022-08-29T01:33:48.659Z,47.36
2022-08-29T01:34:48.643Z,47.27
2022-08-29T01:36:41.036Z,47.08
2022-08-29T01:37:40.962Z,47.08
2022-08-29T01:39:33.295Z,47.17
2022-08-29T01:40:33.363Z,47.27
2022-08-29T01:42:25.725Z,47.27
2022-08-29T01:43:25.609Z,47.36
2022-08-29T01:45:18.965Z,47.27
2022-08-29T01:46:18.946Z,47.08
2022-08-29T01:48:11.351Z,47.08
2022-08-29T01:49:11.275Z,47.17
2022-08-29T01:51:03.740Z,47.08
2022-08-29T01:52:03.726Z,47.36
2022-08-29T01:53:57.177Z,47.36
2022-08-29T01:54:57.063Z,47.36
2022-08-29T01:56:49.408Z,47.36
2022-08-29T01:57:49.263Z,47.36
2022-08-29T01:59:41.690Z,47.46
2022-08-29T02:00:41.657Z,47.27
2022-08-29T02:02:35.132Z,47.56
2022-08-29T02:03:35.044Z,47.36
2022-08-29T02:05:28.534Z,47.56
2022-08-29T02:06:28.363Z,47.46
2022-08-29T02:08:21.696Z,47.46
2022-08-29T02:09:21.681Z,47.56
2022-08-29T02:11:15.123Z,47.56
2022-08-29T02:12:15.003Z,47.46
2022-08-29T02:14:12.992Z,47.56
2022-08-29T02:15:08.337Z,47.56
2022-08-29T02:17:01.665Z,47.46
2022-08-29T02:18:01.570Z,47.46
2022-08-29T02:19:53.880Z,47.56
2022-08-29T02:20:53.865Z,47.46
2022-08-29T02:22:48.320Z,47.56
2022-08-29T02:23:48.202Z,47.56
2022-08-29T02:25:40.537Z,47.56
2022-08-29T02:26:40.522Z,47.36
2022-08-29T02:28:33.955Z,47.46
2022-08-29T02:29:37.162Z,46.98
2022-08-29T02:31:27.266Z,46.98
2022-08-29T02:32:27.183Z,47.17
2022-08-29T02:34:20.616Z,46.98
2022-08-29T02:35:20.510Z,47.46
2022-08-29T02:37:13.840Z,47.46
2022-08-29T02:38:13.989Z,47.56
2022-08-29T02:40:08.319Z,47.17
2022-08-29T02:41:12.409Z,47.46
2022-08-29T02:43:00.499Z,47.17
2022-08-29T02:44:00.482Z,47.36
2022-08-29T02:45:53.885Z,47.56
2022-08-29T02:46:53.860Z,47.46
2022-08-29T02:48:49.185Z,47.08
2022-08-29T02:49:45.795Z,46.98
2022-08-29T02:51:38.592Z,47.46
2022-08-29T02:52:38.477Z,47.17
2022-08-29T02:54:30.811Z,47.46
2022-08-29T02:55:30.799Z,47.46
2022-08-29T02:57:24.230Z,47.56
2022-08-29T02:58:24.119Z,47.56
2022-08-29T03:00:16.454Z,47.56
2022-08-29T03:01:16.497Z,47.17
2022-08-29T03:03:08.962Z,47.46
2022-08-29T03:04:08.760Z,47.46
2022-08-29T03:06:01.091Z,47.56
2022-08-29T03:07:01.079Z,47.56
2022-08-29T03:08:54.542Z,47.56
2022-08-29T03:09:54.398Z,47.56
2022-08-29T03:11:46.738Z,47.56
2022-08-29T03:12:46.723Z,47.66
2022-08-29T03:14:41.268Z,47.27
2022-08-29T03:15:41.069Z,46.98
2022-08-29T03:17:33.410Z,46.89
2022-08-29T03:18:33.391Z,46.69
2022-08-29T03:20:26.853Z,47.17
2022-08-29T03:21:26.732Z,47.17
2022-08-29T03:23:21.082Z,47.17
2022-08-29T03:24:26.186Z,47.17
2022-08-29T03:26:14.530Z,47.08
2022-08-29T03:27:14.401Z,46.98
2022-08-29T03:29:06.734Z,47.08
2022-08-29T03:30:06.719Z,47.08
2022-08-29T03:32:00.177Z,47.08
2022-08-29T03:33:00.066Z,47.17
2022-08-29T03:34:53.418Z,47.27
2022-08-29T03:35:53.402Z,47.17
2022-08-29T03:37:45.799Z,47.27
2022-08-29T03:38:45.730Z,46.89
2022-08-29T03:40:38.106Z,47.27
2022-08-29T03:41:38.055Z,47.17
2022-08-29T03:43:30.487Z,47.27
2022-08-29T03:44:30.386Z,47.17
2022-08-29T03:46:23.752Z,47.27
2022-08-29T03:47:23.713Z,47.08
2022-08-29T03:49:16.152Z,47.00
2022-08-29T03:50:16.032Z,47.10
2022-08-29T03:52:08.370Z,47.08
2022-08-29T03:53:08.355Z,47.08
2022-08-29T03:55:02.797Z,46.81
2022-08-29T03:56:02.681Z,46.69
2022-08-29T03:57:55.020Z,47.20
2022-08-29T03:58:55.001Z,46.91
2022-08-29T04:00:47.440Z,47.20
2022-08-29T04:01:47.444Z,46.98
2022-08-29T04:03:40.682Z,47.08
2022-08-29T04:04:40.666Z,46.89
2022-08-29T04:06:33.065Z,47.46
2022-08-29T04:07:32.988Z,47.58
2022-08-29T04:09:25.322Z,47.46
2022-08-29T04:10:25.308Z,47.58
2022-08-29T04:12:18.106Z,47.58
2022-08-29T04:13:17.999Z,47.30
2022-08-29T04:15:10.340Z,47.58
2022-08-29T04:16:10.372Z,47.46
2022-08-29T04:18:02.761Z,47.30
2022-08-29T04:19:02.649Z,47.58
2022-08-29T04:20:54.987Z,47.68
2022-08-29T04:21:54.975Z,47.68
2022-08-29T04:23:48.001Z,47.77
2022-08-29T04:24:47.294Z,47.87
2022-08-29T04:26:39.674Z,47.87
2022-08-29T04:27:39.659Z,47.68
2022-08-29T04:29:32.098Z,47.30
2022-08-29T04:30:31.981Z,47.97
2022-08-29T04:32:24.317Z,47.20
2022-08-29T04:33:24.301Z,47.39
2022-08-29T04:35:16.849Z,47.30
2022-08-29T04:36:16.746Z,47.49
2022-08-29T04:38:09.088Z,47.39
2022-08-29T04:39:09.072Z,47.30
2022-08-29T04:41:01.539Z,47.39
2022-08-29T04:42:01.427Z,47.30
2022-08-29T04:43:53.767Z,47.51
2022-08-29T04:44:53.751Z,47.51
2022-08-29T04:46:46.242Z,47.30
2022-08-29T04:47:46.069Z,47.30
2022-08-29T04:49:38.409Z,47.41
2022-08-29T04:50:38.399Z,47.41
2022-08-29T04:52:31.829Z,47.31
2022-08-29T04:53:31.713Z,47.31
2022-08-29T04:55:25.595Z,47.51
2022-08-29T04:56:25.107Z,47.31
2022-08-29T04:58:18.517Z,47.41
2022-08-29T04:59:18.436Z,47.41
2022-08-29T05:01:11.843Z,47.70
2022-08-29T05:02:11.752Z,47.70
2022-08-29T05:04:04.193Z,47.41
2022-08-29T05:05:04.082Z,47.41
2022-08-29T05:06:56.450Z,47.41
2022-08-29T05:07:56.438Z,47.41
2022-08-29T05:09:51.955Z,47.51
2022-08-29T05:10:48.758Z,47.51
2022-08-29T05:12:41.114Z,47.80
2022-08-29T05:13:42.537Z,47.41
2022-08-29T05:15:33.512Z,47.70
2022-08-29T05:16:33.423Z,47.41
2022-08-29T05:18:25.755Z,47.51
2022-08-29T05:19:25.737Z,47.61
2022-08-29T05:21:18.176Z,47.41
2022-08-29T05:22:18.059Z,47.70
2022-08-29T05:24:10.405Z,47.82
2022-08-29T05:25:14.431Z,47.41
2022-08-29T05:27:03.820Z,47.72
2022-08-29T05:28:03.711Z,47.72
2022-08-29T05:29:56.142Z,47.53
2022-08-29T05:30:56.100Z,47.82
2022-08-29T05:32:48.489Z,47.53
2022-08-29T05:33:48.367Z,47.72
2022-08-29T05:35:40.699Z,47.70
2022-08-29T05:36:40.686Z,47.63
2022-08-29T05:38:33.085Z,47.53
2022-08-29T05:39:33.005Z,47.44
2022-08-29T05:41:25.360Z,47.53
2022-08-29T05:42:25.343Z,47.63
2022-08-29T05:44:17.792Z,47.92
2022-08-29T05:45:17.675Z,47.82
2022-08-29T05:47:10.025Z,47.82
2022-08-29T05:48:10.105Z,48.21
2022-08-29T05:50:02.438Z,47.82
2022-08-29T05:51:02.325Z,48.30
2022-08-29T05:52:55.419Z,48.11
2022-08-29T05:53:54.643Z,48.02
2022-08-29T05:55:47.095Z,47.92
2022-08-29T05:56:46.995Z,48.21
2022-08-29T05:58:39.332Z,48.02
2022-08-29T05:59:39.315Z,48.21
2022-08-29T06:01:32.726Z,48.11
2022-08-29T06:02:31.746Z,48.21
2022-08-29T06:04:23.977Z,48.11
2022-08-29T06:05:23.966Z,48.11
2022-08-29T06:07:16.437Z,47.82
2022-08-29T06:08:16.478Z,47.82
2022-08-29T06:10:08.626Z,47.92
2022-08-29T06:11:08.615Z,47.82
2022-08-29T06:13:01.710Z,48.02
2022-08-29T06:14:00.937Z,47.82
2022-08-29T06:15:53.412Z,47.85
2022-08-29T06:16:53.257Z,48.21
2022-08-29T06:18:45.692Z,48.21
2022-08-29T06:19:45.577Z,47.94
2022-08-29T06:21:37.923Z,47.92
2022-08-29T06:22:40.255Z,47.94
2022-08-29T06:24:30.404Z,47.92
2022-08-29T06:25:39.536Z,47.94
2022-08-29T06:27:22.596Z,47.94
2022-08-29T06:28:24.088Z,47.94
2022-08-29T06:30:14.985Z,48.03
2022-08-29T06:31:14.991Z,48.03
2022-08-29T06:33:07.253Z,48.03
2022-08-29T06:34:07.232Z,47.94
2022-08-29T06:35:59.680Z,47.94
2022-08-29T06:36:59.555Z,48.03
2022-08-29T06:38:51.907Z,47.94
2022-08-29T06:39:51.889Z,48.23
2022-08-29T06:41:43.850Z,48.33
2022-08-29T06:42:43.738Z,48.23
2022-08-29T06:44:36.077Z,47.94
2022-08-29T06:45:36.061Z,48.23
2022-08-29T06:47:29.163Z,48.13
2022-08-29T06:48:29.711Z,48.13
2022-08-29T06:50:20.751Z,48.03
2022-08-29T06:51:20.727Z,48.23
2022-08-29T06:53:26.921Z,48.13
2022-08-29T06:54:13.052Z,48.13
2022-08-29T06:56:05.454Z,48.33
2022-08-29T06:57:05.382Z,48.23
2022-08-29T06:58:57.821Z,48.23
2022-08-29T06:59:57.721Z,47.94
2022-08-29T07:01:50.167Z,47.94
2022-08-29T07:02:51.714Z,48.33
2022-08-29T07:04:42.487Z,48.23
2022-08-29T07:05:42.358Z,47.94
2022-08-29T07:07:35.945Z,48.23
2022-08-29T07:08:34.687Z,47.94
2022-08-29T07:10:27.138Z,48.03
2022-08-29T07:11:27.022Z,47.94
2022-08-29T07:13:19.366Z,48.13
2022-08-29T07:14:19.346Z,48.23
2022-08-29T07:16:11.832Z,47.94
2022-08-29T07:17:11.669Z,48.23
2022-08-29T07:19:04.010Z,48.13
2022-08-29T07:20:03.994Z,48.13
2022-08-29T07:21:58.288Z,48.23
2022-08-29T07:22:56.325Z,48.43
2022-08-29T07:24:48.656Z,48.33
2022-08-29T07:25:48.644Z,48.23
2022-08-29T07:27:41.088Z,47.65
2022-08-29T07:28:45.662Z,48.33
2022-08-29T07:30:33.375Z,47.65
2022-08-29T07:31:33.318Z,48.23
2022-08-29T07:33:25.749Z,47.77
2022-08-29T07:34:25.632Z,47.85
2022-08-29T07:36:17.973Z,47.94
2022-08-29T07:37:17.959Z,47.94
2022-08-29T07:39:10.396Z,47.56
2022-08-29T07:40:10.387Z,47.58
2022-08-29T07:42:02.620Z,48.03
2022-08-29T07:43:02.601Z,47.77
2022-08-29T07:44:55.038Z,47.85
2022-08-29T07:45:54.985Z,47.56
2022-08-29T07:47:47.352Z,47.56
2022-08-29T07:48:47.253Z,47.58
2022-08-29T07:50:39.672Z,47.56
2022-08-29T07:51:40.509Z,47.58
2022-08-29T07:53:31.921Z,47.46
2022-08-29T07:54:31.908Z,47.65
2022-08-29T07:56:24.543Z,47.85
2022-08-29T07:57:24.231Z,47.67
2022-08-29T07:59:16.568Z,47.46
2022-08-29T08:00:16.561Z,47.85
2022-08-29T08:02:09.036Z,47.65
2022-08-29T08:03:08.875Z,47.77
2022-08-29T08:05:01.210Z,47.85
2022-08-29T08:06:06.922Z,47.87
2022-08-29T08:07:55.606Z,47.67
2022-08-29T08:08:53.529Z,47.85
2022-08-29T08:10:50.082Z,47.87
2022-08-29T08:11:45.855Z,47.67
2022-08-29T08:13:38.282Z,47.87
2022-08-29T08:14:38.172Z,47.58
2022-08-29T08:16:30.560Z,47.49
2022-08-29T08:17:30.497Z,47.56
2022-08-29T08:19:22.939Z,47.87
2022-08-29T08:20:22.818Z,47.58
2022-08-29T08:22:15.173Z,47.49
2022-08-29T08:23:15.168Z,47.58
2022-08-29T08:25:07.607Z,47.58
2022-08-29T08:26:07.491Z,47.49
2022-08-29T08:27:59.824Z,47.49
2022-08-29T08:28:59.808Z,47.49
2022-08-29T08:30:52.275Z,47.39
2022-08-29T08:31:52.136Z,47.49
2022-08-29T08:33:44.497Z,47.49
2022-08-29T08:34:44.466Z,47.87
2022-08-29T08:36:40.769Z,47.49
2022-08-29T08:37:36.785Z,47.39
2022-08-29T08:39:29.137Z,47.87
2022-08-29T08:40:29.155Z,47.49
2022-08-29T08:42:24.806Z,47.87
2022-08-29T08:43:26.978Z,47.67
2022-08-29T08:45:13.797Z,47.49
2022-08-29T08:46:13.966Z,47.77
2022-08-29T08:48:06.231Z,47.49
2022-08-29T08:49:06.104Z,47.77
2022-08-29T08:50:58.448Z,47.39
2022-08-29T08:51:58.432Z,47.29
2022-08-29T08:53:50.873Z,47.49
2022-08-29T08:54:50.766Z,47.39
2022-08-29T08:56:43.136Z,47.58
2022-08-29T08:57:43.086Z,47.49
2022-08-29T08:59:35.487Z,47.29
2022-08-29T09:00:35.408Z,47.97
2022-08-29T09:02:27.800Z,47.97
2022-08-29T09:03:27.731Z,47.97
2022-08-29T09:05:20.171Z,47.27
2022-08-29T09:06:20.050Z,47.39
2022-08-29T09:08:12.400Z,47.49
2022-08-29T09:09:14.442Z,47.49
2022-08-29T09:11:04.831Z,47.58
2022-08-29T09:12:04.707Z,47.39
2022-08-29T09:13:57.046Z,47.49
2022-08-29T09:14:57.027Z,47.36
2022-08-29T09:16:49.534Z,47.36
2022-08-29T09:17:49.361Z,47.36
2022-08-29T09:19:41.702Z,47.49
2022-08-29T09:20:41.689Z,47.56
2022-08-29T09:22:34.146Z,47.39
2022-08-29T09:23:34.024Z,47.49
2022-08-29T09:25:28.288Z,47.46
2022-08-29T09:26:26.344Z,47.46
2022-08-29T09:28:18.787Z,47.46
2022-08-29T09:29:18.674Z,47.46
2022-08-29T09:31:12.012Z,47.36
2022-08-29T09:32:12.067Z,47.36
2022-08-29T09:34:03.946Z,47.46
2022-08-29T09:35:11.057Z,47.36
2022-08-29T09:36:56.176Z,47.56
2022-08-29T09:37:56.161Z,47.56
2022-08-29T09:39:51.807Z,47.46
2022-08-29T09:40:48.560Z,47.46
2022-08-29T09:42:40.820Z,47.65
2022-08-29T09:43:40.805Z,47.46
2022-08-29T09:45:33.308Z,47.46
2022-08-29T09:46:33.135Z,47.46
2022-08-29T09:48:25.472Z,47.46
2022-08-29T09:49:25.456Z,47.46
2022-08-29T09:51:17.896Z,47.65
2022-08-29T09:52:17.784Z,47.46
2022-08-29T09:54:10.139Z,47.46
2022-08-29T09:55:10.122Z,47.46
2022-08-29T09:57:02.582Z,47.46
2022-08-29T09:58:02.457Z,47.65
2022-08-29T09:59:54.796Z,47.65
2022-08-29T10:00:54.799Z,47.56
2022-08-29T10:02:47.248Z,47.56
2022-08-29T10:03:47.097Z,47.56
2022-08-29T10:05:39.435Z,47.44
2022-08-29T10:06:44.309Z,47.85
2022-08-29T10:08:31.817Z,47.46
2022-08-29T10:09:31.740Z,47.46
2022-08-29T10:11:24.082Z,47.56
2022-08-29T10:12:24.067Z,47.65
2022-08-29T10:14:16.542Z,47.46
2022-08-29T10:15:33.402Z,47.56
2022-08-29T10:17:08.744Z,47.56
2022-08-29T10:18:08.728Z,47.44
2022-08-29T10:20:01.169Z,47.46
2022-08-29T10:21:01.049Z,47.56
2022-08-29T10:22:53.390Z,47.72
2022-08-29T10:23:53.378Z,47.63
2022-08-29T10:25:45.824Z,47.44
2022-08-29T10:26:45.700Z,47.53
2022-08-29T10:28:38.034Z,47.44
2022-08-29T10:29:38.019Z,47.63
2022-08-29T10:31:30.511Z,47.44
2022-08-29T10:32:30.346Z,47.53
2022-08-29T10:34:22.695Z,47.44
2022-08-29T10:35:22.680Z,47.34
2022-08-29T10:37:15.120Z,47.34
2022-08-29T10:38:15.002Z,47.44
2022-08-29T10:40:07.435Z,47.53
2022-08-29T10:41:07.327Z,47.44
2022-08-29T10:42:59.757Z,47.53
2022-08-29T10:43:59.646Z,47.63
2022-08-29T10:45:52.005Z,47.53
2022-08-29T10:46:51.967Z,47.72
2022-08-29T10:48:44.401Z,47.63
2022-08-29T10:49:44.977Z,47.53
2022-08-29T10:51:37.625Z,47.92
2022-08-29T10:52:37.611Z,47.53
2022-08-29T10:54:30.069Z,47.53
2022-08-29T10:55:29.949Z,47.72
2022-08-29T10:57:22.292Z,47.53
2022-08-29T10:58:22.276Z,47.44
2022-08-29T11:00:14.726Z,47.44
2022-08-29T11:01:14.667Z,47.44
2022-08-29T11:03:07.062Z,47.72
2022-08-29T11:04:07.029Z,47.72
2022-08-29T11:05:59.382Z,47.82
2022-08-29T11:06:59.269Z,47.92
2022-08-29T11:08:51.129Z,47.82
2022-08-29T11:09:51.114Z,47.82
2022-08-29T11:11:43.518Z,47.82
2022-08-29T11:12:43.440Z,47.92
2022-08-29T11:14:35.775Z,47.53
2022-08-29T11:15:35.762Z,47.72
2022-08-29T11:17:28.207Z,47.92
2022-08-29T11:18:28.090Z,47.63
2022-08-29T11:20:20.430Z,48.21
2022-08-29T11:21:20.419Z,47.53
2022-08-29T11:23:12.876Z,47.53
2022-08-29T11:24:12.743Z,47.63
2022-08-29T11:26:05.085Z,47.72
2022-08-29T11:27:05.069Z,47.72
2022-08-29T11:28:57.504Z,48.30
2022-08-29T11:29:57.390Z,47.82
2022-08-29T11:31:49.778Z,48.21
2022-08-29T11:32:49.721Z,48.30
2022-08-29T11:34:42.159Z,47.72
2022-08-29T11:35:42.040Z,47.82
2022-08-29T11:37:34.383Z,47.82
2022-08-29T11:38:34.366Z,48.21
2022-08-29T11:41:27.812Z,48.11
2022-08-29T11:43:19.024Z,48.21
2022-08-29T11:44:19.010Z,48.11
2022-08-29T11:46:11.459Z,48.02
2022-08-29T11:47:11.391Z,47.89
2022-08-29T11:49:03.669Z,48.02
2022-08-29T11:50:03.680Z,47.99
2022-08-29T11:51:56.089Z,48.08
2022-08-29T11:52:55.974Z,47.89
2022-08-29T11:54:48.311Z,48.08
2022-08-29T11:55:48.296Z,48.02
2022-08-29T11:57:40.749Z,48.08
2022-08-29T11:58:40.625Z,47.89
2022-08-29T12:00:32.968Z,47.89
2022-08-29T12:01:32.955Z,48.08
2022-08-29T12:03:28.865Z,48.08
2022-08-29T12:04:25.329Z,48.08
2022-08-29T12:06:17.647Z,47.99
2022-08-29T12:07:17.631Z,48.18
2022-08-29T12:09:13.448Z,47.99
2022-08-29T12:10:09.953Z,48.08
2022-08-29T12:12:02.286Z,48.18
2022-08-29T12:13:02.281Z,48.18
2022-08-29T12:14:54.671Z,48.18
2022-08-29T12:15:54.672Z,48.28
2022-08-29T12:18:03.622Z,48.08
2022-08-29T12:18:46.915Z,47.99
2022-08-29T12:20:39.362Z,48.08
2022-08-29T12:21:39.243Z,48.08
2022-08-29T12:23:31.615Z,48.18
2022-08-29T12:24:31.562Z,48.08
2022-08-29T12:26:24.010Z,48.18
2022-08-29T12:27:23.883Z,48.18
2022-08-29T12:29:17.220Z,48.28
2022-08-29T12:30:17.206Z,48.28
2022-08-29T12:32:23.103Z,48.18
2022-08-29T12:33:09.529Z,47.89
2022-08-29T12:35:01.863Z,48.08
2022-08-29T12:36:01.846Z,48.18
2022-08-29T12:37:54.288Z,48.28
2022-08-29T12:38:54.171Z,48.18
2022-08-29T12:40:46.573Z,47.99
2022-08-29T12:41:46.489Z,48.18
2022-08-29T12:43:38.934Z,48.18
2022-08-29T12:44:38.814Z,48.18
2022-08-29T12:46:31.174Z,48.18
2022-08-29T12:47:31.134Z,48.18
2022-08-29T12:49:23.581Z,48.08
2022-08-29T12:50:23.459Z,48.28
2022-08-29T12:52:15.797Z,48.28
2022-08-29T12:53:15.782Z,48.08
2022-08-29T12:55:08.181Z,48.28
2022-08-29T12:56:08.099Z,48.18
2022-08-29T12:58:00.441Z,48.28
2022-08-29T12:59:00.432Z,48.28
2022-08-29T13:00:52.833Z,48.08
2022-08-29T13:01:56.111Z,47.99
2022-08-29T13:03:45.086Z,48.08
2022-08-29T13:04:45.070Z,48.08
2022-08-29T13:06:37.516Z,48.18
2022-08-29T13:07:37.392Z,48.28
2022-08-29T13:09:29.728Z,48.18
2022-08-29T13:10:29.714Z,48.08
2022-08-29T13:12:22.192Z,48.08
2022-08-29T13:13:22.038Z,48.08
2022-08-29T13:15:14.388Z,48.28
2022-08-29T13:16:14.412Z,48.08
2022-08-29T13:18:06.809Z,48.08
2022-08-29T13:19:11.212Z,48.08
2022-08-29T13:20:59.049Z,47.99
2022-08-29T13:21:59.035Z,48.08
2022-08-29T13:23:51.506Z,48.08
2022-08-29T13:24:51.355Z,48.18
2022-08-29T13:27:03.356Z,47.99
2022-08-29T13:27:43.676Z,48.08
2022-08-29T13:29:36.092Z,48.18
2022-08-29T13:30:36.003Z,48.08
2022-08-29T13:32:28.347Z,48.08
2022-08-29T13:33:34.927Z,48.08
2022-08-29T13:35:20.733Z,48.08
2022-08-29T13:36:20.651Z,48.28
2022-08-29T13:38:12.984Z,48.08
2022-08-29T13:39:12.971Z,47.99
2022-08-29T13:41:05.399Z,48.08
2022-08-29T13:42:05.298Z,47.99
2022-08-29T13:43:57.627Z,48.28
2022-08-29T13:44:57.612Z,48.16
2022-08-29T13:46:50.089Z,48.28
2022-08-29T13:47:49.932Z,48.28
2022-08-29T13:49:42.272Z,48.18
2022-08-29T13:50:42.343Z,48.18
2022-08-29T13:52:34.702Z,48.18
2022-08-29T13:53:34.581Z,47.89
2022-08-29T13:55:26.925Z,48.08
2022-08-29T13:56:31.527Z,48.18
2022-08-29T13:58:19.355Z,48.16
2022-08-29T13:59:19.224Z,48.18
2022-08-29T14:02:12.707Z,48.18
2022-08-29T14:04:27.341Z,48.18
2022-08-29T14:05:04.885Z,47.99
2022-08-29T14:06:57.230Z,48.18
2022-08-29T14:07:57.214Z,48.08
2022-08-29T14:09:49.650Z,48.18
2022-08-29T14:10:49.545Z,48.18
2022-08-29T14:12:41.882Z,48.18
2022-08-29T14:13:41.867Z,48.07
2022-08-29T14:15:34.367Z,48.18
2022-08-29T14:16:34.188Z,48.16
2022-08-29T14:18:26.524Z,47.99
2022-08-29T14:19:26.507Z,48.07
2022-08-29T14:21:18.919Z,48.16
2022-08-29T14:22:18.841Z,47.97
2022-08-29T14:24:11.176Z,47.87
2022-08-29T14:25:11.163Z,47.87
2022-08-29T14:27:03.596Z,47.87
2022-08-29T14:28:03.485Z,48.07
2022-08-29T14:29:55.825Z,48.07
2022-08-29T14:30:55.902Z,47.97
2022-08-29T14:32:48.247Z,47.87
2022-08-29T14:33:51.515Z,48.16
2022-08-29T14:35:43.217Z,47.87
2022-08-29T14:36:43.540Z,48.07
2022-08-29T14:38:33.882Z,47.97
2022-08-29T14:39:33.769Z,48.16
2022-08-29T14:41:26.104Z,48.07
2022-08-29T14:42:26.089Z,48.07
2022-08-29T14:44:20.165Z,48.07
2022-08-29T14:45:18.411Z,48.08
2022-08-29T14:47:10.766Z,47.87
2022-08-29T14:48:10.753Z,47.87
2022-08-29T14:50:03.197Z,48.16
2022-08-29T14:51:03.079Z,48.25
2022-08-29T14:52:55.419Z,47.97
2022-08-29T14:53:55.400Z,47.97
2022-08-29T14:55:47.805Z,48.16
2022-08-29T14:56:49.606Z,47.99
2022-08-29T14:58:40.062Z,47.77
2022-08-29T14:59:40.045Z,48.35
2022-08-29T15:01:32.488Z,47.77
2022-08-29T15:02:32.410Z,47.77
2022-08-29T15:04:36.399Z,48.25
2022-08-29T15:05:24.690Z,47.58
2022-08-29T15:07:17.180Z,47.77
2022-08-29T15:08:17.149Z,47.58
2022-08-29T15:10:09.386Z,48.07
2022-08-29T15:11:09.368Z,47.68
2022-08-29T15:13:01.814Z,47.58
2022-08-29T15:14:04.518Z,47.58
2022-08-29T15:15:54.082Z,48.25
2022-08-29T15:16:54.013Z,48.25
2022-08-29T15:19:31.513Z,47.77
2022-08-29T15:21:38.671Z,48.16
2022-08-29T15:22:38.656Z,48.07
2022-08-29T15:24:31.066Z,47.87
2022-08-29T15:25:30.988Z,47.87
2022-08-29T15:27:27.416Z,47.77
2022-08-29T15:28:24.320Z,47.58
2022-08-29T15:30:16.752Z,47.97
2022-08-29T15:31:16.701Z,47.77
2022-08-29T15:33:08.983Z,47.97
2022-08-29T15:34:08.970Z,47.87
2022-08-29T15:36:01.408Z,47.77
2022-08-29T15:37:01.306Z,47.77
2022-08-29T15:38:53.649Z,47.77
2022-08-29T15:39:54.677Z,47.68
2022-08-29T15:41:46.071Z,48.16
2022-08-29T15:42:45.953Z,47.68
2022-08-29T15:44:38.288Z,47.77
2022-08-29T15:45:38.276Z,47.87
2022-08-29T15:47:30.731Z,47.68
2022-08-29T15:48:30.598Z,47.77
2022-08-29T15:50:22.932Z,47.58
2022-08-29T15:51:22.917Z,47.77
2022-08-29T15:53:15.351Z,47.58
2022-08-29T15:54:15.235Z,47.77
2022-08-29T15:56:07.577Z,47.68
2022-08-29T15:57:07.563Z,47.77
2022-08-29T15:59:00.002Z,47.49
2022-08-29T15:59:59.886Z,47.39
2022-08-29T16:01:52.290Z,47.39
2022-08-29T16:02:52.237Z,47.87
2022-08-29T16:04:44.657Z,47.49
2022-08-29T16:05:44.529Z,47.97
2022-08-29T16:07:36.868Z,47.77
2022-08-29T16:08:36.852Z,47.49
2022-08-29T16:10:28.854Z,47.49
2022-08-29T16:11:28.694Z,47.49
2022-08-29T16:13:21.032Z,47.39
2022-08-29T16:16:13.504Z,47.49
2022-08-29T16:17:13.365Z,47.39
2022-08-29T16:19:05.688Z,47.39
2022-08-29T16:20:05.656Z,47.49
2022-08-29T16:21:58.102Z,47.30
2022-08-29T16:22:57.977Z,47.68
2022-08-29T16:24:50.334Z,47.39
2022-08-29T16:25:50.318Z,47.68
2022-08-29T16:27:42.766Z,47.58
2022-08-29T16:28:42.638Z,47.68
2022-08-29T16:30:35.073Z,47.77
2022-08-29T16:31:34.996Z,47.58
2022-08-29T16:33:27.371Z,47.68
2022-08-29T16:34:27.290Z,47.39
2022-08-29T16:36:19.627Z,47.77
2022-08-29T16:37:19.611Z,47.49
2022-08-29T16:39:12.012Z,47.77
2022-08-29T16:40:11.965Z,47.58
2022-08-29T16:42:04.269Z,47.58
2022-08-29T16:43:04.259Z,47.58
2022-08-29T16:44:56.703Z,47.77
2022-08-29T16:45:56.619Z,47.49
2022-08-29T16:47:48.935Z,47.77
2022-08-29T16:48:48.918Z,47.68
2022-08-29T16:50:41.360Z,47.39
2022-08-29T16:51:41.248Z,47.68
2022-08-29T16:53:38.100Z,47.58
2022-08-29T16:54:33.580Z,47.20
2022-08-29T16:56:27.022Z,47.39
2022-08-29T16:57:26.908Z,47.58
2022-08-29T16:59:19.247Z,47.49
2022-08-29T17:00:19.234Z,47.39
2022-08-29T17:02:11.665Z,47.39
2022-08-29T17:03:11.554Z,47.30
2022-08-29T17:05:03.894Z,47.39
2022-08-29T17:06:03.879Z,47.30
2022-08-29T17:07:56.326Z,47.30
2022-08-29T17:08:56.201Z,47.39
2022-08-29T17:10:48.534Z,47.36
2022-08-29T17:11:48.521Z,47.49
2022-08-29T17:13:40.915Z,47.39
2022-08-29T17:14:40.840Z,47.30
2022-08-29T17:16:33.371Z,47.49
2022-08-29T17:17:33.161Z,47.36
2022-08-29T17:19:25.630Z,47.49
2022-08-29T17:20:25.508Z,47.30
2022-08-29T17:22:17.857Z,47.39
2022-08-29T17:23:17.842Z,47.27
2022-08-29T17:25:10.288Z,47.39
2022-08-29T17:26:10.164Z,47.20
2022-08-29T17:28:17.116Z,47.39
2022-08-29T17:29:02.483Z,47.39
2022-08-29T17:30:54.970Z,47.30
2022-08-29T17:31:54.806Z,47.58
2022-08-29T17:33:47.140Z,47.30
2022-08-29T17:34:47.126Z,47.36
2022-08-29T17:36:39.531Z,47.30
2022-08-29T17:37:39.446Z,47.68
2022-08-29T17:39:31.793Z,47.20
2022-08-29T17:40:31.854Z,47.08
2022-08-29T17:42:24.216Z,47.77
2022-08-29T17:43:24.100Z,47.49
2022-08-29T17:45:16.435Z,47.68
2022-08-29T17:46:16.501Z,47.58
2022-08-29T17:48:08.905Z,47.68
2022-08-29T17:49:08.743Z,47.66
2022-08-29T17:51:01.079Z,47.49
2022-08-29T17:52:01.063Z,47.30
2022-08-29T17:53:53.678Z,47.36
2022-08-29T17:54:53.382Z,47.36
2022-08-29T17:56:45.717Z,47.46
2022-08-29T17:57:45.701Z,47.39
2022-08-29T17:59:38.152Z,47.36
2022-08-29T18:00:38.029Z,47.17
2022-08-29T18:02:30.385Z,47.36
2022-08-29T18:03:30.359Z,47.27
2022-08-29T18:05:22.834Z,47.27
2022-08-29T18:06:22.681Z,47.27
2022-08-29T18:08:15.184Z,47.27
2022-08-29T18:09:15.002Z,47.27
2022-08-29T18:11:07.436Z,47.36
2022-08-29T18:12:07.327Z,47.30
2022-08-29T18:13:59.664Z,47.27
2022-08-29T18:14:59.648Z,47.08
2022-08-29T18:16:52.207Z,47.36
2022-08-29T18:17:51.979Z,47.36
2022-08-29T18:19:44.316Z,47.46
2022-08-29T18:20:44.301Z,47.39
2022-08-29T18:22:36.703Z,47.49
2022-08-29T18:23:36.620Z,47.58
2022-08-29T18:25:28.964Z,47.36
2022-08-29T18:26:28.951Z,47.39
2022-08-29T18:28:21.412Z,47.49
2022-08-29T18:29:21.287Z,47.56
2022-08-29T18:31:18.344Z,47.46
2022-08-29T18:32:13.607Z,47.27
2022-08-29T18:34:06.011Z,47.56
2022-08-29T18:35:05.933Z,47.46
2022-08-29T18:36:58.267Z,47.46